Time;durP1;ratioP1;P1;durP2;ratioP2;P2;SDS_P1;SDS_P2;PMS_P1;PMS_P2;Temp;Humidity;BMP_temperature;BMP_pressure;BME280_temperature;BME280_humidity;BME280_pressure;Samples;Min_cycle;Max_cycle;Signal;HPM_P1;HPM_P2
2023/06/26 00:02:16;;;;;;;6.97;2.60;;;19.90;99.90;;;;;;5072763;28;20032;-92
2023/06/26 00:04:43;;;;;;;12.25;2.72;;;19.90;99.90;;;;;;5055990;28;20507;-92
2023/06/26 00:07:09;;;;;;;3.60;2.42;;;19.80;99.90;;;;;;5055135;28;20038;-92
2023/06/26 00:09:35;;;;;;;6.25;2.40;;;19.80;99.90;;;;;;5055297;28;20016;-92
2023/06/26 00:12:00;;;;;;;8.52;2.53;;;19.80;99.90;;;;;;5072781;28;20025;-92
2023/06/26 00:14:26;;;;;;;6.13;2.65;;;19.70;99.90;;;;;;5055072;28;20052;-91
2023/06/26 00:16:52;;;;;;;4.15;2.42;;;19.70;99.90;;;;;;5055286;28;20044;-90
2023/06/26 00:19:18;;;;;;;8.23;2.78;;;19.70;99.90;;;;;;5054885;28;20017;-91
2023/06/26 00:21:46;;;;;;;6.10;2.95;;;19.70;99.90;;;;;;5054621;28;20021;-89
2023/06/26 00:24:13;;;;;;;13.63;2.80;;;19.70;99.90;;;;;;5054982;28;20028;-93
2023/06/26 00:26:38;;;;;;;13.55;3.20;;;19.70;99.90;;;;;;5051604;28;20045;-90
2023/06/26 00:29:04;;;;;;;5.25;3.00;;;19.60;99.90;;;;;;5051270;28;20028;-90
2023/06/26 00:31:30;;;;;;;7.95;3.00;;;19.60;99.90;;;;;;5051258;28;20112;-90
2023/06/26 00:33:56;;;;;;;10.65;3.35;;;19.70;99.90;;;;;;5052243;28;20112;-89
2023/06/26 00:36:23;;;;;;;5.18;2.65;;;19.60;99.90;;;;;;5052751;28;20040;-90
2023/06/26 00:38:49;;;;;;;4.72;3.15;;;19.70;99.90;;;;;;5053828;28;20053;-89
2023/06/26 00:41:15;;;;;;;5.05;3.30;;;19.60;99.90;;;;;;5056190;28;20056;-90
2023/06/26 00:43:41;;;;;;;9.40;3.25;;;19.70;99.90;;;;;;5055265;28;20481;-90
2023/06/26 00:46:10;;;;;;;5.57;3.05;;;19.70;99.90;;;;;;5054879;28;20310;-90
2023/06/26 00:48:37;;;;;;;8.35;3.22;;;19.70;99.90;;;;;;5055041;28;20068;-91
2023/06/26 00:51:03;;;;;;;6.05;3.20;;;19.70;99.90;;;;;;5054556;28;20138;-91
2023/06/26 00:53:30;;;;;;;6.13;3.38;;;19.70;99.90;;;;;;5054572;28;20128;-90
2023/06/26 00:55:56;;;;;;;6.35;3.90;;;19.70;99.90;;;;;;5054744;28;20515;-90
2023/06/26 00:58:25;;;;;;;7.13;3.13;;;19.70;99.90;;;;;;5054835;28;20056;-90
2023/06/26 01:00:52;;;;;;;7.45;3.35;;;19.70;99.90;;;;;;5054638;28;20025;-90
2023/06/26 01:03:18;;;;;;;4.38;3.13;;;19.70;99.90;;;;;;5054654;28;20655;-91
2023/06/26 01:05:45;;;;;;;5.85;2.95;;;19.70;99.90;;;;;;5054527;28;20031;-91
2023/06/26 01:08:13;;;;;;;9.50;3.10;;;19.70;99.90;;;;;;5068856;28;20013;-91
2023/06/26 01:10:39;;;;;;;6.60;3.80;;;19.70;99.90;;;;;;5069628;28;20037;-91
2023/06/26 01:13:05;;;;;;;5.40;3.47;;;19.60;99.90;;;;;;5058495;28;20444;-91
2023/06/26 01:15:31;;;;;;;8.68;3.30;;;19.60;99.90;;;;;;5053956;28;20124;-91
2023/06/26 01:17:59;;;;;;;11.82;3.70;;;19.70;99.90;;;;;;5054990;28;20123;-91
2023/06/26 01:20:27;;;;;;;7.88;4.03;;;19.70;99.90;;;;;;5054412;28;20067;-91
2023/06/26 01:23:15;;;;;;;12.30;4.35;;;19.60;99.90;;;;;;5054105;28;20097;-90
2023/06/26 01:25:52;;;;;;;6.20;3.80;;;19.60;99.90;;;;;;5053367;28;20045;-90
2023/06/26 01:28:19;;;;;;;8.63;3.78;;;19.60;99.90;;;;;;5053630;28;20029;-90
2023/06/26 01:30:46;;;;;;;8.70;3.58;;;19.60;99.90;;;;;;5053977;28;20170;-91
2023/06/26 01:33:16;;;;;;;7.15;3.75;;;19.50;99.90;;;;;;5053846;28;20017;-89
2023/06/26 01:35:42;;;;;;;6.85;3.65;;;19.50;99.90;;;;;;5053626;28;20052;-89
2023/06/26 01:38:23;;;;;;;6.15;3.72;;;19.50;99.90;;;;;;5053836;28;20036;-91
2023/06/26 01:40:49;;;;;;;7.20;4.15;;;19.50;99.90;;;;;;5054909;28;20406;-90
2023/06/26 01:43:53;;;;;;;11.25;4.45;;;19.50;99.90;;;;;;5054132;28;20538;-90
2023/06/26 01:46:22;;;;;;;7.45;4.18;;;19.50;99.90;;;;;;5055240;28;20025;-91
2023/06/26 01:49:01;;;;;;;6.60;3.92;;;19.50;99.90;;;;;;5055690;28;20029;-90
2023/06/26 01:51:32;;;;;;;8.15;3.90;;;19.50;99.90;;;;;;5055835;28;20024;-91
2023/06/26 01:54:00;;;;;;;9.80;4.30;;;19.50;99.90;;;;;;5055107;28;20385;-90
2023/06/26 01:56:28;;;;;;;12.63;3.92;;;19.40;99.90;;;;;;5055810;28;20032;-91
2023/06/26 01:58:55;;;;;;;5.13;3.75;;;19.40;99.90;;;;;;5055501;28;20036;-92
2023/06/26 02:01:22;;;;;;;10.93;4.68;;;19.40;99.90;;;;;;5076287;28;20044;-90
2023/06/26 02:03:48;;;;;;;5.43;3.47;;;19.40;99.90;;;;;;5076176;28;20027;-90
2023/06/26 02:06:14;;;;;;;9.05;4.13;;;19.40;99.90;;;;;;5068887;28;20127;-90
2023/06/26 02:08:40;;;;;;;14.43;3.65;;;19.30;99.90;;;;;;5062726;28;20021;-91
2023/06/26 02:11:05;;;;;;;4.35;3.67;;;19.30;99.90;;;;;;5061572;28;20049;-91
2023/06/26 02:13:31;;;;;;;10.45;3.80;;;19.30;99.90;;;;;;5054704;28;20032;-91
2023/06/26 02:15:57;;;;;;;10.55;4.05;;;19.20;99.90;;;;;;5053089;28;20032;-90
2023/06/26 02:18:23;;;;;;;7.13;3.35;;;19.20;99.90;;;;;;5053332;28;20032;-91
2023/06/26 02:20:49;;;;;;;7.45;4.00;;;19.20;99.90;;;;;;5053505;28;20102;-91
2023/06/26 02:23:14;;;;;;;7.40;4.10;;;19.20;99.90;;;;;;5053167;28;20379;-92
2023/06/26 02:25:41;;;;;;;6.32;3.28;;;19.10;99.90;;;;;;5052928;28;20056;-91
2023/06/26 02:28:06;;;;;;;5.72;3.85;;;19.10;99.90;;;;;;5053222;28;20393;-92
2023/06/26 02:30:32;;;;;;;5.80;3.63;;;19.10;99.90;;;;;;5054387;28;20056;-92
2023/06/26 02:32:58;;;;;;;11.82;4.47;;;19.10;99.90;;;;;;5053104;28;20028;-92
2023/06/26 02:35:24;;;;;;;5.78;3.65;;;19.10;99.90;;;;;;5053007;28;20477;-92
2023/06/26 02:37:50;;;;;;;6.82;4.22;;;19.00;99.90;;;;;;5052668;28;20098;-90
2023/06/26 02:40:16;;;;;;;9.30;3.95;;;19.00;99.90;;;;;;5052866;28;20497;-91
2023/06/26 02:42:41;;;;;;;7.82;4.15;;;19.00;99.90;;;;;;5053683;28;20117;-92
2023/06/26 02:45:08;;;;;;;5.47;3.80;;;19.00;99.90;;;;;;5053913;28;20386;-91
2023/06/26 02:47:33;;;;;;;5.45;4.18;;;19.10;99.90;;;;;;5051914;28;20083;-92
2023/06/26 02:49:59;;;;;;;6.65;3.78;;;19.00;99.90;;;;;;5053424;28;20033;-91
2023/06/26 02:52:25;;;;;;;7.00;4.68;;;19.10;99.90;;;;;;5054597;28;20032;-92
2023/06/26 02:54:51;;;;;;;6.43;4.45;;;19.10;99.90;;;;;;5052613;28;20028;-91
2023/06/26 02:57:16;;;;;;;7.85;4.38;;;19.10;99.90;;;;;;5053669;28;20170;-92
2023/06/26 02:59:42;;;;;;;8.68;4.10;;;19.10;99.90;;;;;;5052064;28;20032;-91
2023/06/26 03:02:08;;;;;;;7.25;4.20;;;19.10;99.90;;;;;;5053729;28;20037;-92
2023/06/26 03:04:36;;;;;;;7.53;4.82;;;19.20;99.90;;;;;;5052906;28;20037;-92
2023/06/26 03:07:02;;;;;;;5.05;3.80;;;19.20;99.90;;;;;;5052259;28;20116;-91
2023/06/26 03:09:28;;;;;;;8.05;4.30;;;19.20;99.90;;;;;;5054207;28;20028;-91
2023/06/26 03:11:55;;;;;;;15.23;4.47;;;19.20;99.90;;;;;;5051771;28;20524;-90
2023/06/26 03:14:21;;;;;;;8.02;4.53;;;19.20;99.90;;;;;;5052602;28;20032;-92
2023/06/26 03:16:46;;;;;;;11.63;4.88;;;19.20;99.90;;;;;;5052148;28;20037;-91
2023/06/26 03:19:12;;;;;;;7.50;4.07;;;19.20;99.90;;;;;;5052341;28;20021;-91
2023/06/26 03:21:38;;;;;;;8.77;4.32;;;19.20;99.90;;;;;;5051284;28;20078;-92
2023/06/26 03:24:04;;;;;;;13.25;4.80;;;19.20;99.90;;;;;;5074938;28;20021;-91
2023/06/26 03:26:29;;;;;;;6.13;4.05;;;19.20;99.90;;;;;;5058714;28;20525;-91
2023/06/26 03:28:55;;;;;;;10.95;5.10;;;19.20;99.90;;;;;;5053135;28;20111;-91
2023/06/26 03:31:22;;;;;;;9.65;5.00;;;19.20;99.90;;;;;;5054936;28;20068;-91
2023/06/26 03:33:48;;;;;;;6.45;4.38;;;19.20;99.90;;;;;;5053429;28;20474;-90
2023/06/26 03:36:13;;;;;;;7.55;4.43;;;19.20;99.90;;;;;;5052273;28;20021;-91
2023/06/26 03:38:39;;;;;;;10.07;4.72;;;19.20;99.90;;;;;;5052242;28;20037;-91
2023/06/26 03:41:05;;;;;;;7.03;4.65;;;19.20;99.90;;;;;;5051764;28;20027;-91
2023/06/26 03:43:30;;;;;;;7.35;4.57;;;19.20;99.90;;;;;;5052013;28;20060;-90
2023/06/26 03:45:56;;;;;;;7.00;4.30;;;19.20;99.90;;;;;;5051869;28;20021;-91
2023/06/26 03:48:21;;;;;;;6.82;4.00;;;19.20;99.90;;;;;;5052132;28;20041;-90
2023/06/26 03:50:47;;;;;;;7.15;4.50;;;19.20;99.90;;;;;;5051814;28;20078;-91
2023/06/26 03:53:13;;;;;;;13.18;4.88;;;19.20;99.90;;;;;;5051782;28;20033;-91
2023/06/26 03:55:38;;;;;;;9.52;4.95;;;19.20;99.90;;;;;;5051817;28;20025;-91
2023/06/26 03:58:04;;;;;;;8.25;5.07;;;19.20;99.90;;;;;;5051284;28;20500;-91
2023/06/26 04:00:30;;;;;;;10.05;4.70;;;19.20;99.90;;;;;;5051782;28;20032;-91
2023/06/26 04:02:57;;;;;;;10.45;4.60;;;19.30;99.90;;;;;;5051756;28;20028;-91
2023/06/26 04:05:23;;;;;;;6.45;4.18;;;19.30;99.90;;;;;;5051254;28;20052;-92
2023/06/26 04:07:52;;;;;;;15.88;5.28;;;19.40;99.90;;;;;;5051756;28;20033;-91
2023/06/26 04:10:20;;;;;;;6.65;4.43;;;19.50;99.90;;;;;;5054163;28;20029;-91
2023/06/26 04:12:46;;;;;;;11.18;4.47;;;19.60;99.90;;;;;;5055809;28;20436;-91
2023/06/26 04:15:12;;;;;;;11.15;6.38;;;19.70;99.90;;;;;;5055522;28;20078;-91
2023/06/26 04:17:37;;;;;;;9.60;4.55;;;19.80;99.90;;;;;;5055441;28;20105;-92
2023/06/26 04:20:06;;;;;;;7.40;4.50;;;19.80;99.90;;;;;;5055462;28;20025;-92
2023/06/26 04:22:32;;;;;;;10.10;4.93;;;20.00;99.90;;;;;;5056906;28;20029;-92
2023/06/26 04:24:58;;;;;;;10.45;4.55;;;20.20;99.90;;;;;;5060386;28;20044;-91
2023/06/26 04:27:23;;;;;;;7.60;4.35;;;20.30;99.90;;;;;;5058474;28;20093;-91
2023/06/26 04:29:49;;;;;;;6.15;4.45;;;20.30;99.90;;;;;;5058692;28;20101;-90
2023/06/26 04:32:15;;;;;;;9.35;4.65;;;20.50;99.90;;;;;;5058764;28;20025;-92
2023/06/26 04:34:43;;;;;;;6.90;4.70;;;20.50;99.90;;;;;;5058556;28;20046;-92
2023/06/26 04:37:09;;;;;;;6.78;4.75;;;20.70;99.90;;;;;;5058495;28;20041;-92
2023/06/26 04:39:36;;;;;;;9.15;5.00;;;20.80;99.90;;;;;;5058635;28;20024;-91
2023/06/26 04:42:03;;;;;;;17.40;4.65;;;20.90;99.90;;;;;;5058055;28;20103;-92
2023/06/26 04:44:29;;;;;;;12.27;4.93;;;21.00;99.90;;;;;;5058028;28;20026;-91
2023/06/26 04:46:54;;;;;;;9.18;4.97;;;21.20;99.90;;;;;;5057156;28;20024;-92
2023/06/26 04:49:20;;;;;;;8.45;4.47;;;21.40;99.90;;;;;;5058357;28;20032;-92
2023/06/26 04:51:46;;;;;;;8.10;4.95;;;21.70;99.90;;;;;;5058227;28;20115;-91
2023/06/26 04:54:12;;;;;;;6.63;4.43;;;22.00;99.90;;;;;;5058094;28;20088;-91
2023/06/26 04:56:39;;;;;;;5.45;3.65;;;22.20;99.90;;;;;;5041726;28;20045;-91
2023/06/26 04:59:05;;;;;;;5.68;4.30;;;22.40;99.90;;;;;;5058372;28;20060;-92
2023/06/26 05:01:32;;;;;;;8.68;5.03;;;22.60;99.90;;;;;;5058321;28;20075;-91
2023/06/26 05:04:00;;;;;;;6.05;3.92;;;22.80;99.90;;;;;;5057942;28;20021;-91
2023/06/26 05:06:26;;;;;;;6.80;5.00;;;23.00;99.90;;;;;;5058381;28;20468;-91
2023/06/26 05:08:51;;;;;;;5.65;4.50;;;23.10;99.90;;;;;;5057931;28;20024;-92
2023/06/26 05:11:17;;;;;;;7.20;4.25;;;23.00;99.90;;;;;;5057284;28;20056;-91
2023/06/26 05:13:43;;;;;;;6.32;4.85;;;23.00;99.90;;;;;;5075439;28;20024;-91
2023/06/26 05:16:09;;;;;;;11.60;4.30;;;23.00;99.90;;;;;;5075327;28;20500;-91
2023/06/26 05:18:35;;;;;;;6.95;4.55;;;22.90;99.90;;;;;;5059416;28;20119;-92
2023/06/26 05:21:01;;;;;;;9.27;4.90;;;22.80;99.90;;;;;;5076058;28;20024;-91
2023/06/26 05:23:31;;;;;;;7.18;4.50;;;22.70;99.90;;;;;;5075833;28;20036;-92
2023/06/26 05:25:57;;;;;;;5.32;4.10;;;22.70;99.90;;;;;;5058960;28;20098;-91
2023/06/26 05:28:24;;;;;;;7.82;4.50;;;22.70;99.90;;;;;;5058987;28;20027;-91
2023/06/26 05:30:51;;;;;;;6.03;4.20;;;22.60;99.90;;;;;;5059662;28;20068;-90
2023/06/26 05:33:19;;;;;;;8.85;4.78;;;22.50;99.90;;;;;;5057529;28;20028;-92
2023/06/26 05:35:45;;;;;;;11.35;4.10;;;22.40;99.90;;;;;;5059609;28;20027;-91
2023/06/26 05:38:13;;;;;;;10.05;4.38;;;22.40;99.90;;;;;;5072324;28;20020;-88
2023/06/26 05:40:40;;;;;;;6.60;4.28;;;22.40;99.90;;;;;;5081794;28;20040;-89
2023/06/26 05:43:06;;;;;;;6.60;4.13;;;22.40;99.90;;;;;;5082499;28;20020;-84
2023/06/26 05:45:32;;;;;;;6.35;4.32;;;22.50;99.90;;;;;;5079634;28;20047;-91
2023/06/26 05:47:58;;;;;;;6.63;4.45;;;22.60;99.90;;;;;;5073195;28;20088;-90
2023/06/26 05:50:24;;;;;;;6.75;4.78;;;22.70;99.90;;;;;;5078570;28;20067;-91
2023/06/26 05:52:50;;;;;;;6.32;4.28;;;23.00;99.90;;;;;;5074695;28;20155;-91
2023/06/26 05:55:16;;;;;;;7.88;4.65;;;23.60;99.90;;;;;;5057027;28;20499;-91
2023/06/26 05:57:43;;;;;;;10.50;4.25;;;24.20;99.60;;;;;;5056832;28;20036;-91
2023/06/26 06:00:10;;;;;;;16.33;3.97;;;24.70;97.30;;;;;;5056921;28;20107;-92
2023/06/26 06:02:39;;;;;;;7.80;4.13;;;24.80;96.40;;;;;;5057422;28;20034;-92
2023/06/26 06:05:06;;;;;;;6.93;4.72;;;24.70;96.30;;;;;;5056486;28;20026;-92
2023/06/26 06:07:33;;;;;;;5.47;4.15;;;24.60;97.30;;;;;;5054831;28;20443;-91
2023/06/26 06:09:59;;;;;;;9.45;4.50;;;24.50;97.50;;;;;;5056147;28;20028;-91
2023/06/26 06:12:24;;;;;;;8.13;4.15;;;24.40;97.70;;;;;;5056966;28;20029;-92
2023/06/26 06:14:50;;;;;;;11.60;5.60;;;24.30;97.60;;;;;;5056940;28;20477;-91
2023/06/26 06:17:16;;;;;;;12.45;5.50;;;24.30;97.40;;;;;;5073917;28;20082;-91
2023/06/26 06:19:42;;;;;;;6.75;4.55;;;24.10;98.00;;;;;;5056301;28;20021;-91
2023/06/26 06:22:07;;;;;;;11.02;4.63;;;24.00;98.30;;;;;;5056869;28;20039;-91
2023/06/26 06:24:33;;;;;;;6.75;4.35;;;23.90;99.00;;;;;;5056421;28;20077;-91
2023/06/26 06:26:58;;;;;;;9.15;4.55;;;23.90;99.70;;;;;;5056381;28;20056;-92
2023/06/26 06:29:24;;;;;;;15.13;5.18;;;23.80;99.90;;;;;;5056593;28;20111;-92
2023/06/26 06:31:51;;;;;;;12.00;5.18;;;23.90;99.30;;;;;;5074080;28;20024;-91
2023/06/26 06:34:17;;;;;;;8.30;4.40;;;23.90;99.00;;;;;;5055409;28;20031;-91
2023/06/26 06:36:42;;;;;;;10.52;5.38;;;23.90;99.60;;;;;;5073801;28;20488;-92
2023/06/26 06:39:08;;;;;;;7.80;5.10;;;24.00;98.50;;;;;;5055203;28;20115;-91
2023/06/26 06:41:34;;;;;;;11.77;4.80;;;24.00;97.30;;;;;;5054718;28;20032;-92
2023/06/26 06:43:59;;;;;;;10.13;5.75;;;24.00;97.50;;;;;;5055750;28;20032;-92
2023/06/26 06:46:27;;;;;;;8.93;5.55;;;24.10;99.00;;;;;;5074007;28;20023;-91
2023/06/26 06:48:53;;;;;;;13.45;5.13;;;24.10;99.90;;;;;;5055254;28;20031;-91
2023/06/26 06:51:18;;;;;;;17.90;5.53;;;24.20;99.90;;;;;;5055353;28;20029;-92
2023/06/26 06:53:44;;;;;;;10.60;4.70;;;24.30;99.90;;;;;;5055515;28;20033;-92
2023/06/26 06:56:10;;;;;;;7.82;4.82;;;24.40;99.90;;;;;;5055766;28;20124;-93
2023/06/26 06:58:35;;;;;;;9.88;4.95;;;24.50;99.50;;;;;;5056087;28;20035;-93
2023/06/26 07:01:04;;;;;;;9.85;5.78;;;25.10;98.50;;;;;;5054887;28;20024;-90
2023/06/26 07:03:30;;;;;;;6.43;4.85;;;26.00;96.70;;;;;;5055216;28;20451;-92
2023/06/26 07:05:56;;;;;;;6.53;4.30;;;27.00;91.80;;;;;;5054406;28;20029;-91
2023/06/26 07:08:21;;;;;;;9.07;4.70;;;27.70;84.70;;;;;;5072252;28;20025;-92
2023/06/26 07:10:47;;;;;;;7.65;4.60;;;28.20;78.00;;;;;;5054630;28;20032;-90
2023/06/26 07:13:13;;;;;;;8.75;3.53;;;29.00;73.90;;;;;;5073566;28;20020;-89
2023/06/26 07:15:38;;;;;;;13.43;4.45;;;29.90;69.50;;;;;;5054928;28;20032;-90
2023/06/26 07:18:04;;;;;;;6.65;3.90;;;30.30;66.70;;;;;;5054907;28;20359;-89
2023/06/26 07:20:30;;;;;;;5.75;3.83;;;30.40;64.30;;;;;;5054087;28;20028;-89
2023/06/26 07:22:55;;;;;;;7.25;4.13;;;30.30;63.80;;;;;;5072261;28;20052;-89
2023/06/26 07:25:21;;;;;;;4.72;3.42;;;30.60;60.30;;;;;;5054334;28;20502;-90
2023/06/26 07:27:47;;;;;;;4.25;3.53;;;30.40;58.20;;;;;;5054888;28;20511;-89
2023/06/26 07:30:13;;;;;;;8.23;3.72;;;30.40;59.30;;;;;;5072576;28;20024;-90
2023/06/26 07:32:40;;;;;;;7.75;4.13;;;30.20;57.00;;;;;;5055532;28;20511;-89
2023/06/26 07:35:06;;;;;;;6.22;4.18;;;29.90;57.80;;;;;;5055397;28;20028;-90
2023/06/26 07:37:32;;;;;;;6.38;4.32;;;29.30;57.80;;;;;;5055579;28;20396;-90
2023/06/26 07:39:57;;;;;;;8.40;4.30;;;28.90;59.70;;;;;;5055204;28;20021;-89
2023/06/26 07:42:23;;;;;;;7.20;4.22;;;29.10;59.50;;;;;;5073098;28;20033;-89
2023/06/26 07:44:49;;;;;;;8.43;4.10;;;29.20;60.10;;;;;;5055989;28;20021;-90
2023/06/26 07:47:15;;;;;;;6.57;3.60;;;29.20;59.50;;;;;;5058726;28;20052;-90
2023/06/26 07:49:41;;;;;;;5.22;3.83;;;29.30;58.20;;;;;;5059497;28;20049;-89
2023/06/26 07:52:06;;;;;;;7.63;3.70;;;29.20;57.10;;;;;;5069898;28;20127;-90
2023/06/26 07:54:32;;;;;;;7.57;3.97;;;29.30;57.90;;;;;;5078337;28;20027;-89
2023/06/26 07:57:01;;;;;;;5.72;3.55;;;28.90;57.60;;;;;;5059239;28;20024;-88
2023/06/26 07:59:28;;;;;;;5.32;3.53;;;28.90;56.20;;;;;;5058746;28;20086;-89
2023/06/26 08:01:55;;;;;;;6.38;4.22;;;28.70;55.70;;;;;;5058416;28;20021;-89
2023/06/26 08:04:23;;;;;;;4.88;3.50;;;28.60;54.60;;;;;;5059605;28;20111;-90
2023/06/26 08:06:50;;;;;;;6.93;3.67;;;29.00;56.20;;;;;;5060678;28;20036;-91
2023/06/26 08:09:17;;;;;;;5.00;3.63;;;29.90;55.30;;;;;;5059035;28;20036;-90
2023/06/26 08:11:43;;;;;;;5.07;3.80;;;30.90;52.60;;;;;;5057582;28;20105;-89
2023/06/26 08:14:09;;;;;;;5.93;3.60;;;31.90;49.30;;;;;;5058433;28;20029;-90
2023/06/26 08:16:35;;;;;;;7.50;3.05;;;32.10;47.80;;;;;;5075850;28;20484;-90
2023/06/26 08:19:01;;;;;;;14.35;3.80;;;31.90;49.20;;;;;;5058765;28;20071;-91
2023/06/26 08:21:26;;;;;;;13.68;3.95;;;31.90;49.30;;;;;;5057509;28;20027;-89
2023/06/26 08:23:52;;;;;;;8.82;3.45;;;31.30;49.10;;;;;;5057600;28;20032;-91
2023/06/26 08:26:18;;;;;;;6.43;3.47;;;31.10;48.90;;;;;;5058434;28;20048;-91
2023/06/26 08:28:43;;;;;;;8.10;3.80;;;31.00;49.10;;;;;;5057495;28;20029;-92
2023/06/26 08:31:09;;;;;;;7.07;3.83;;;30.50;50.10;;;;;;5060183;28;20032;-92
2023/06/26 08:33:34;;;;;;;16.00;4.20;;;29.90;50.30;;;;;;5081323;28;20027;-91
2023/06/26 08:36:00;;;;;;;6.55;3.85;;;29.70;51.30;;;;;;5058477;28;20028;-91
2023/06/26 08:38:26;;;;;;;5.47;3.80;;;29.60;52.70;;;;;;5057849;28;20068;-91
2023/06/26 08:40:51;;;;;;;7.45;4.00;;;29.40;51.70;;;;;;5058605;28;20020;-92
2023/06/26 08:43:17;;;;;;;5.95;4.13;;;29.60;52.30;;;;;;5076205;28;20401;-91
2023/06/26 08:45:43;;;;;;;5.85;3.78;;;30.10;51.00;;;;;;5057197;28;20020;-90
2023/06/26 08:48:09;;;;;;;6.30;3.30;;;30.20;50.10;;;;;;5057909;28;20028;-91
2023/06/26 08:50:37;;;;;;;4.90;3.42;;;30.40;49.80;;;;;;5056658;28;20043;-93
2023/06/26 08:53:12;;;;;;;6.88;4.43;;;30.90;49.60;;;;;;5074052;28;20025;-91
2023/06/26 08:55:42;;;;;;;7.80;3.92;;;31.40;48.80;;;;;;5056191;28;20024;-91
2023/06/26 08:58:07;;;;;;;8.35;3.35;;;31.50;49.30;;;;;;5057754;28;20571;-91
2023/06/26 09:00:33;;;;;;;7.35;3.53;;;31.30;48.60;;;;;;5075055;28;20059;-91
2023/06/26 09:03:00;;;;;;;4.53;3.40;;;31.30;49.10;;;;;;5057980;28;20440;-92
2023/06/26 09:05:31;;;;;;;6.43;3.80;;;30.90;48.90;;;;;;5056746;28;20021;-92
2023/06/26 09:07:58;;;;;;;10.90;4.15;;;31.00;49.20;;;;;;5056568;28;20024;-89
2023/06/26 09:10:24;;;;;;;6.50;3.13;;;31.20;50.70;;;;;;5056417;28;20109;-90
2023/06/26 09:12:50;;;;;;;4.45;3.15;;;31.40;47.70;;;;;;5075215;28;20028;-91
2023/06/26 09:15:19;;;;;;;3.35;2.92;;;31.30;49.00;;;;;;5075339;28;20051;-91
2023/06/26 09:17:44;;;;;;;6.05;3.60;;;31.40;47.90;;;;;;5080778;28;20055;-90
2023/06/26 09:20:10;;;;;;;6.38;4.18;;;30.90;47.70;;;;;;5090815;28;20025;-91
2023/06/26 09:22:38;;;;;;;6.40;3.05;;;30.70;47.90;;;;;;5063304;28;20033;-91
2023/06/26 09:25:05;;;;;;;6.10;3.00;;;30.30;47.70;;;;;;5078785;28;20530;-91
2023/06/26 09:27:31;;;;;;;6.60;3.63;;;29.90;50.40;;;;;;5057818;28;20086;-91
2023/06/26 09:29:58;;;;;;;11.45;3.33;;;29.40;53.10;;;;;;5057068;28;20028;-91
2023/06/26 09:32:24;;;;;;;6.18;3.58;;;29.20;53.00;;;;;;5056620;28;20120;-91
2023/06/26 09:34:53;;;;;;;5.03;3.65;;;28.80;53.00;;;;;;5075507;28;20024;-91
2023/06/26 09:37:20;;;;;;;5.03;3.28;;;28.60;53.50;;;;;;5075233;28;20044;-90
2023/06/26 09:39:45;;;;;;;6.88;4.05;;;28.50;54.50;;;;;;5057444;28;20074;-91
2023/06/26 09:42:14;;;;;;;8.07;4.03;;;28.90;53.60;;;;;;5056433;28;20028;-90
2023/06/26 09:44:45;;;;;;;5.15;3.40;;;29.20;54.30;;;;;;5056353;28;20028;-90
2023/06/26 09:47:10;;;;;;;6.22;3.70;;;29.70;54.50;;;;;;5055853;28;20024;-91
2023/06/26 09:49:36;;;;;;;5.65;3.53;;;30.30;53.30;;;;;;5055993;28;20029;-90
2023/06/26 09:52:02;;;;;;;5.38;3.67;;;31.10;50.40;;;;;;5055505;28;20040;-89
2023/06/26 09:54:30;;;;;;;4.53;3.55;;;31.90;48.80;;;;;;5056456;28;20476;-93
2023/06/26 09:57:06;;;;;;;7.15;3.30;;;32.40;48.30;;;;;;5057388;28;20033;-90
2023/06/26 09:59:33;;;;;;;9.52;3.55;;;31.80;46.50;;;;;;5055858;28;20020;-92
2023/06/26 10:01:59;;;;;;;5.57;3.60;;;31.40;49.20;;;;;;5057210;28;20028;-92
2023/06/26 10:04:25;;;;;;;4.68;3.22;;;31.10;49.30;;;;;;5055846;28;20032;-92
2023/06/26 10:06:54;;;;;;;5.80;3.80;;;30.80;48.10;;;;;;5068429;28;20059;-90
2023/06/26 10:09:21;;;;;;;7.20;3.40;;;30.10;49.90;;;;;;5090053;28;20106;-91
2023/06/26 10:11:56;;;;;;;5.95;4.03;;;29.90;51.40;;;;;;5057074;28;20028;-91
2023/06/26 10:14:25;;;;;;;8.35;3.75;;;29.40;51.50;;;;;;5073816;28;20017;-90
2023/06/26 10:16:51;;;;;;;4.47;3.85;;;29.20;52.60;;;;;;5057166;28;20037;-92
2023/06/26 10:19:24;;;;;;;5.78;3.58;;;29.00;51.50;;;;;;5055911;28;20119;-91
2023/06/26 10:21:52;;;;;;;7.78;3.95;;;28.90;52.20;;;;;;5056013;28;20028;-90
2023/06/26 10:24:20;;;;;;;5.00;3.63;;;29.10;52.80;;;;;;5056819;28;20036;-92
2023/06/26 10:26:50;;;;;;;5.30;3.85;;;29.00;53.60;;;;;;5064519;28;20059;-89
2023/06/26 10:29:17;;;;;;;4.93;3.15;;;28.90;52.80;;;;;;5077473;28;20043;-90
2023/06/26 10:31:50;;;;;;;6.57;3.50;;;28.60;55.20;;;;;;5063460;28;20032;-91
2023/06/26 10:34:15;;;;;;;9.73;4.32;;;28.40;54.70;;;;;;5078415;28;20485;-90
2023/06/26 10:36:41;;;;;;;5.80;3.80;;;28.40;54.10;;;;;;5056712;28;20032;-91
2023/06/26 10:39:07;;;;;;;16.42;5.22;;;28.20;56.00;;;;;;5074013;28;20040;-92
2023/06/26 10:41:43;;;;;;;7.10;4.03;;;27.90;55.70;;;;;;5055175;28;20536;-91
2023/06/26 10:44:11;;;;;;;7.15;4.28;;;27.70;56.30;;;;;;5056282;28;20036;-92
2023/06/26 10:46:58;;;;;;;6.43;4.07;;;27.60;56.80;;;;;;5056112;28;20025;-91
2023/06/26 10:49:29;;;;;;;6.30;3.95;;;27.50;57.00;;;;;;5054953;28;20286;-92
2023/06/26 10:51:58;;;;;;;6.28;3.70;;;27.50;57.20;;;;;;5055953;28;20021;-90
2023/06/26 10:54:29;;;;;;;5.88;3.88;;;27.40;57.20;;;;;;5056040;28;20064;-92
2023/06/26 10:56:58;;;;;;;6.18;4.15;;;27.40;58.50;;;;;;5055762;28;20040;-90
2023/06/26 10:59:26;;;;;;;6.68;3.88;;;27.60;58.40;;;;;;5055174;28;20477;-90
2023/06/26 11:01:57;;;;;;;9.23;4.75;;;28.00;57.20;;;;;;5054357;28;20496;-91
2023/06/26 11:04:45;;;;;;;7.65;3.72;;;28.20;56.20;;;;;;5055101;28;20025;-91
2023/06/26 11:07:22;;;;;;;6.07;4.40;;;28.40;55.60;;;;;;5055712;28;20029;-91
2023/06/26 11:10:02;;;;;;;5.95;4.47;;;28.40;57.40;;;;;;5055322;28;20120;-92
2023/06/26 11:12:41;;;;;;;23.10;4.72;;;28.30;56.40;;;;;;5055275;28;20021;-91
2023/06/26 11:15:27;;;;;;;6.55;3.88;;;28.30;58.40;;;;;;5055260;28;20039;-92
2023/06/26 11:17:54;;;;;;;10.25;4.35;;;28.20;57.10;;;;;;5055281;28;20032;-93
2023/06/26 11:20:20;;;;;;;6.30;4.32;;;27.90;57.80;;;;;;5054637;28;20028;-92
2023/06/26 11:22:46;;;;;;;7.07;4.40;;;27.70;57.30;;;;;;5055325;28;20028;-92
2023/06/26 11:25:12;;;;;;;9.15;5.15;;;27.50;57.30;;;;;;5055276;28;20090;-92
2023/06/26 11:27:44;;;;;;;5.85;4.43;;;27.50;57.60;;;;;;5055654;28;20028;-92
2023/06/26 11:30:11;;;;;;;6.70;5.43;;;27.70;57.00;;;;;;5054874;28;20059;-91
2023/06/26 11:32:40;;;;;;;7.32;4.55;;;27.80;57.60;;;;;;5072599;28;20024;-91
2023/06/26 11:35:06;;;;;;;7.40;4.85;;;28.10;56.00;;;;;;5054182;28;20056;-91
2023/06/26 11:37:32;;;;;;;5.88;4.55;;;28.20;55.70;;;;;;5053403;28;20056;-93
2023/06/26 11:39:58;;;;;;;5.60;4.07;;;28.50;56.90;;;;;;5054589;28;20031;-91
2023/06/26 11:42:25;;;;;;;5.07;4.22;;;28.50;54.30;;;;;;5054995;28;20029;-92
2023/06/26 11:44:51;;;;;;;10.43;4.30;;;28.40;53.40;;;;;;5054006;28;20377;-92
2023/06/26 11:47:18;;;;;;;10.85;4.57;;;28.40;53.60;;;;;;5054737;28;20025;-93
2023/06/26 11:49:48;;;;;;;8.13;4.50;;;28.30;53.70;;;;;;5054587;28;20499;-91
2023/06/26 11:52:15;;;;;;;6.85;4.47;;;28.40;55.30;;;;;;5054142;28;20500;-92
2023/06/26 11:54:42;;;;;;;6.88;3.90;;;28.70;55.50;;;;;;5054799;28;20035;-92
2023/06/26 11:57:08;;;;;;;6.07;3.95;;;28.90;56.80;;;;;;5054670;28;20028;-92
2023/06/26 11:59:40;;;;;;;5.82;4.10;;;29.00;56.90;;;;;;5054506;28;20052;-92
2023/06/26 12:02:16;;;;;;;7.43;4.30;;;29.20;57.50;;;;;;5054642;28;20439;-93
2023/06/26 12:04:43;;;;;;;6.82;4.35;;;29.30;54.60;;;;;;5054853;28;20070;-91
2023/06/26 12:07:10;;;;;;;8.65;4.35;;;29.50;54.00;;;;;;5054734;28;20121;-93
2023/06/26 12:09:47;;;;;;;8.05;4.82;;;29.50;53.50;;;;;;5055480;28;20102;-92
2023/06/26 12:12:16;;;;;;;6.07;4.50;;;29.60;54.20;;;;;;5054662;28;20024;-92
2023/06/26 12:14:42;;;;;;;5.30;3.88;;;29.60;52.60;;;;;;5055277;28;20032;-93
2023/06/26 12:17:13;;;;;;;7.90;3.85;;;29.60;53.80;;;;;;5055972;28;20055;-92
2023/06/26 12:19:42;;;;;;;5.80;4.20;;;29.70;53.10;;;;;;5055106;28;20028;-91
2023/06/26 12:22:08;;;;;;;5.07;3.85;;;29.80;53.20;;;;;;5075050;28;20044;-90
2023/06/26 12:24:39;;;;;;;4.72;3.67;;;29.90;54.40;;;;;;5068745;28;20055;-90
2023/06/26 12:27:10;;;;;;;6.85;4.10;;;30.10;54.70;;;;;;5073172;28;20033;-94
2023/06/26 12:29:37;;;;;;;6.65;4.78;;;30.10;52.20;;;;;;5054272;28;20025;-91
2023/06/26 12:32:03;;;;;;;6.03;4.78;;;29.90;49.00;;;;;;5061159;28;20096;-93
2023/06/26 12:34:32;;;;;;;4.00;3.47;;;29.60;50.40;;;;;;5061161;28;20025;-94
2023/06/26 12:37:16;;;;;;;7.40;4.40;;;29.40;51.80;;;;;;5059917;28;20036;-92
2023/06/26 12:39:56;;;;;;;5.07;4.28;;;29.50;52.30;;;;;;5076190;28;20032;-92
2023/06/26 12:42:23;;;;;;;10.00;4.38;;;29.50;51.20;;;;;;5059582;28;20024;-93
2023/06/26 12:44:50;;;;;;;9.32;4.60;;;29.40;51.50;;;;;;5076285;28;20026;-92
2023/06/26 12:47:17;;;;;;;5.80;4.22;;;29.40;52.40;;;;;;5059613;28;20048;-93